JES3104 SGAS-SABE
Flight info
| Callsign | JES3104 |
|---|---|
| Flight time | 1h 29m |
| Altitude | 36000 |
| Route | ITAPE ASATI UP526 REPAM UZ103 DALAB UL793 GUA UZ129 PAGON PAGON8Q |
| Aircraft | A320/M-SDE3FGHIRWY/LB1 |
Departure
| Time | 2026-04-30 20:18 |
|---|---|
| Airport | Silvio Pettirossi International Airport (SGAS) |
Arrival
| Time | 2026-04-30 21:47 |
|---|---|
| Airport | Aeroparque Jorge Newbery (SABE) |
| Time | Latitude | Longitude | Altitude | Speed | Heading |
|---|---|---|---|---|---|
| 2026-04-30 19:39 | -25.24057 | -57.51516 | 278 ft | 0 kts | 173° |
| 2026-04-30 20:06 | -25.24046 | -57.51518 | 278 ft | 2 kts | 175° |
| 2026-04-30 20:06 | -25.24029 | -57.51519 | 278 ft | 2 kts | 172° |
| 2026-04-30 20:06 | -25.24014 | -57.51526 | 278 ft | 2 kts | 144° |
| 2026-04-30 20:07 | -25.24004 | -57.51539 | 285 ft | 2 kts | 59° |
| 2026-04-30 20:07 | -25.24013 | -57.51554 | 281 ft | 2 kts | 60° |
| 2026-04-30 20:07 | -25.24032 | -57.51584 | 278 ft | 2 kts | 41° |
| 2026-04-30 20:08 | -25.24043 | -57.51597 | 278 ft | 2 kts | 80° |
| 2026-04-30 20:08 | -25.24041 | -57.51614 | 287 ft | 2 kts | 152° |
| 2026-04-30 20:08 | -25.24031 | -57.51620 | 278 ft | 1 kts | 152° |
| 2026-04-30 20:08 | -25.24031 | -57.51621 | 279 ft | 0 kts | 152° |
| 2026-04-30 20:11 | -25.24032 | -57.51620 | 278 ft | 1 kts | 153° |
| 2026-04-30 20:11 | -25.24044 | -57.51614 | 283 ft | 3 kts | 154° |
| 2026-04-30 20:12 | -25.24113 | -57.51618 | 278 ft | 7 kts | 192° |
| 2026-04-30 20:12 | -25.24168 | -57.51631 | 279 ft | 9 kts | 192° |
| 2026-04-30 20:12 | -25.24238 | -57.51643 | 282 ft | 11 kts | 179° |
| 2026-04-30 20:13 | -25.24322 | -57.51660 | 279 ft | 13 kts | 206° |
| 2026-04-30 20:13 | -25.24383 | -57.51744 | 279 ft | 15 kts | 241° |
| 2026-04-30 20:13 | -25.24454 | -57.51807 | 279 ft | 14 kts | 195° |
| 2026-04-30 20:13 | -25.24554 | -57.51831 | 279 ft | 16 kts | 192° |
| 2026-04-30 20:14 | -25.24670 | -57.51861 | 279 ft | 18 kts | 192° |
| 2026-04-30 20:14 | -25.24801 | -57.51892 | 279 ft | 20 kts | 193° |
| 2026-04-30 20:14 | -25.24947 | -57.51927 | 279 ft | 23 kts | 192° |
| 2026-04-30 20:14 | -25.25110 | -57.51966 | 279 ft | 25 kts | 192° |
| 2026-04-30 20:15 | -25.25256 | -57.52002 | 279 ft | 11 kts | 192° |
| 2026-04-30 20:15 | -25.25329 | -57.52020 | 279 ft | 12 kts | 192° |
| 2026-04-30 20:15 | -25.25404 | -57.52038 | 280 ft | 12 kts | 192° |
| 2026-04-30 20:15 | -25.25478 | -57.52079 | 283 ft | 13 kts | 242° |
| 2026-04-30 20:16 | -25.25472 | -57.52171 | 284 ft | 8 kts | 282° |
| 2026-04-30 20:16 | -25.25464 | -57.52214 | 287 ft | 4 kts | 282° |
| 2026-04-30 20:16 | -25.25454 | -57.52242 | 293 ft | 5 kts | 304° |
| 2026-04-30 20:16 | -25.25415 | -57.52258 | 287 ft | 7 kts | 7° |
| 2026-04-30 20:17 | -25.25405 | -57.52255 | 287 ft | 0 kts | 13° |
| 2026-04-30 20:17 | -25.25402 | -57.52255 | 287 ft | 2 kts | 13° |
| 2026-04-30 20:17 | -25.25294 | -57.52228 | 286 ft | 47 kts | 12° |
| 2026-04-30 20:17 | -25.24744 | -57.52094 | 288 ft | 110 kts | 12° |
| 2026-04-30 20:18 | -25.23833 | -57.51859 | 297 ft | 156 kts | 18° |
| 2026-04-30 20:18 | -25.22778 | -57.51585 | 847 ft | 156 kts | 15° |
| 2026-04-30 20:18 | -25.21719 | -57.51331 | 1413 ft | 159 kts | 14° |
| 2026-04-30 20:18 | -25.20952 | -57.51149 | 1658 ft | 175 kts | 14° |
| 2026-04-30 20:19 | -25.19528 | -57.50165 | 2026 ft | 202 kts | 59° |
| 2026-04-30 20:19 | -25.19227 | -57.49135 | 2274 ft | 220 kts | 87° |
| 2026-04-30 20:19 | -25.20085 | -57.46987 | 2841 ft | 258 kts | 138° |
| 2026-04-30 20:19 | -25.21772 | -57.46196 | 3573 ft | 274 kts | 172° |
| 2026-04-30 20:20 | -25.23046 | -57.46163 | 4131 ft | 279 kts | 184° |
| 2026-04-30 20:20 | -25.24992 | -57.46443 | 5018 ft | 284 kts | 191° |
| 2026-04-30 20:20 | -25.27623 | -57.46982 | 6173 ft | 291 kts | 192° |
| 2026-04-30 20:20 | -25.28952 | -57.47229 | 6727 ft | 293 kts | 191° |
| 2026-04-30 20:21 | -25.30991 | -57.47542 | 7510 ft | 299 kts | 189° |
| 2026-04-30 20:21 | -25.33082 | -57.47789 | 8267 ft | 305 kts | 187° |
| 2026-04-30 20:21 | -25.35218 | -57.47989 | 9046 ft | 311 kts | 187° |
| 2026-04-30 20:21 | -25.37394 | -57.48162 | 9807 ft | 317 kts | 187° |
| 2026-04-30 20:22 | -25.39651 | -57.48327 | 10175 ft | 336 kts | 186° |
| 2026-04-30 20:22 | -25.42054 | -57.48497 | 10443 ft | 354 kts | 186° |
| 2026-04-30 20:22 | -25.44540 | -57.48668 | 10992 ft | 362 kts | 186° |
| 2026-04-30 20:22 | -25.47069 | -57.48843 | 11649 ft | 365 kts | 185° |
| 2026-04-30 20:23 | -25.49617 | -57.49021 | 12310 ft | 368 kts | 185° |
| 2026-04-30 20:23 | -25.52182 | -57.49203 | 12989 ft | 371 kts | 184° |
| 2026-04-30 20:23 | -25.54761 | -57.49386 | 13682 ft | 372 kts | 184° |
| 2026-04-30 20:23 | -25.57346 | -57.49570 | 14309 ft | 373 kts | 184° |
| 2026-04-30 20:24 | -25.59908 | -57.49753 | 14938 ft | 373 kts | 184° |
| 2026-04-30 20:24 | -25.62504 | -57.49939 | 15593 ft | 372 kts | 184° |
| 2026-04-30 20:24 | -25.65094 | -57.50125 | 16254 ft | 372 kts | 185° |
| 2026-04-30 20:24 | -25.67671 | -57.50310 | 16941 ft | 371 kts | 185° |
| 2026-04-30 20:25 | -25.72783 | -57.50678 | 18322 ft | 367 kts | 185° |
| 2026-04-30 20:25 | -25.75343 | -57.50862 | 18939 ft | 365 kts | 185° |
| 2026-04-30 20:26 | -25.80342 | -57.51221 | 20206 ft | 360 kts | 186° |
| 2026-04-30 20:26 | -25.85302 | -57.51574 | 21538 ft | 353 kts | 187° |
| 2026-04-30 20:26 | -25.87754 | -57.51746 | 22224 ft | 348 kts | 187° |
| 2026-04-30 20:27 | -25.92527 | -57.52074 | 23615 ft | 338 kts | 188° |
| 2026-04-30 20:27 | -25.97139 | -57.52376 | 24802 ft | 327 kts | 189° |
| 2026-04-30 20:28 | -26.01603 | -57.52650 | 25989 ft | 315 kts | 190° |
| 2026-04-30 20:28 | -26.05889 | -57.52888 | 27145 ft | 302 kts | 191° |
| 2026-04-30 20:29 | -26.09983 | -57.53084 | 28226 ft | 290 kts | 192° |
| 2026-04-30 20:30 | -26.16216 | -57.53391 | 28957 ft | 304 kts | 192° |
| 2026-04-30 20:30 | -26.22502 | -57.53700 | 29860 ft | 311 kts | 193° |
| 2026-04-30 20:31 | -26.28976 | -57.54035 | 30814 ft | 308 kts | 193° |
| 2026-04-30 20:32 | -26.35556 | -57.54387 | 31419 ft | 316 kts | 194° |
| 2026-04-30 20:32 | -26.40055 | -57.54631 | 31133 ft | 347 kts | 193° |
| 2026-04-30 20:33 | -26.42539 | -57.54788 | 30938 ft | 366 kts | 192° |
| 2026-04-30 20:33 | -26.47785 | -57.55118 | 31101 ft | 385 kts | 192° |
| 2026-04-30 20:33 | -26.50495 | -57.55243 | 31250 ft | 397 kts | 187° |
| 2026-04-30 20:34 | -26.56169 | -57.54499 | 31496 ft | 421 kts | 179° |
| 2026-04-30 20:34 | -26.62027 | -57.53809 | 31745 ft | 431 kts | 185° |
| 2026-04-30 20:35 | -26.65045 | -57.53719 | 31867 ft | 436 kts | 188° |
| 2026-04-30 20:35 | -26.68097 | -57.53761 | 31996 ft | 442 kts | 190° |
| 2026-04-30 20:35 | -26.74337 | -57.53998 | 32251 ft | 457 kts | 190° |
| 2026-04-30 20:36 | -26.77548 | -57.54102 | 32375 ft | 465 kts | 189° |
| 2026-04-30 20:36 | -26.80807 | -57.54173 | 32505 ft | 471 kts | 189° |
| 2026-04-30 20:36 | -26.87387 | -57.54231 | 32767 ft | 474 kts | 189° |
| 2026-04-30 20:37 | -26.90685 | -57.54278 | 32901 ft | 473 kts | 189° |
| 2026-04-30 20:37 | -26.93983 | -57.54358 | 33023 ft | 473 kts | 190° |
| 2026-04-30 20:37 | -26.97271 | -57.54462 | 33158 ft | 473 kts | 190° |
| 2026-04-30 20:37 | -27.00557 | -57.54579 | 33290 ft | 473 kts | 191° |
| 2026-04-30 20:38 | -27.03845 | -57.54694 | 33418 ft | 473 kts | 191° |
| 2026-04-30 20:38 | -27.07137 | -57.54801 | 33560 ft | 474 kts | 190° |
| 2026-04-30 20:38 | -27.10392 | -57.54897 | 33926 ft | 474 kts | 191° |
| 2026-04-30 20:39 | -27.17008 | -57.55082 | 34707 ft | 472 kts | 191° |
| 2026-04-30 20:39 | -27.20294 | -57.55176 | 35100 ft | 470 kts | 191° |
| 2026-04-30 20:39 | -27.23553 | -57.55268 | 35495 ft | 469 kts | 191° |
| 2026-04-30 20:40 | -27.30022 | -57.55452 | 35942 ft | 466 kts | 191° |
| 2026-04-30 20:40 | -27.36482 | -57.55643 | 35953 ft | 463 kts | 191° |
| 2026-04-30 20:41 | -27.45990 | -57.56606 | 35961 ft | 446 kts | 203° |
| 2026-04-30 20:41 | -27.51988 | -57.58175 | 35956 ft | 445 kts | 204° |
| 2026-04-30 20:42 | -27.58021 | -57.59755 | 35957 ft | 445 kts | 204° |
| 2026-04-30 20:43 | -27.67087 | -57.62101 | 35965 ft | 445 kts | 204° |
| 2026-04-30 20:43 | -27.73123 | -57.63667 | 35969 ft | 445 kts | 204° |
| 2026-04-30 20:44 | -27.82168 | -57.66030 | 35976 ft | 445 kts | 204° |
| 2026-04-30 20:45 | -27.94227 | -57.69181 | 35973 ft | 444 kts | 204° |
| 2026-04-30 20:45 | -28.00217 | -57.70740 | 35974 ft | 444 kts | 204° |
| 2026-04-30 20:46 | -28.12270 | -57.73903 | 35973 ft | 444 kts | 204° |
| 2026-04-30 20:47 | -28.21294 | -57.76275 | 35972 ft | 444 kts | 204° |
| 2026-04-30 20:48 | -28.30204 | -57.78625 | 35973 ft | 444 kts | 204° |
| 2026-04-30 20:48 | -28.36358 | -57.80220 | 35971 ft | 444 kts | 204° |
| 2026-04-30 20:49 | -28.42360 | -57.81769 | 35969 ft | 444 kts | 204° |
| 2026-04-30 20:50 | -28.51409 | -57.84104 | 35971 ft | 444 kts | 204° |
| 2026-04-30 20:50 | -28.57408 | -57.85655 | 35970 ft | 444 kts | 204° |
| 2026-04-30 20:51 | -28.63454 | -57.87228 | 35967 ft | 444 kts | 204° |
| 2026-04-30 20:51 | -28.72462 | -57.89567 | 35967 ft | 444 kts | 204° |
| 2026-04-30 20:52 | -28.78486 | -57.91137 | 35970 ft | 444 kts | 204° |
| 2026-04-30 20:53 | -28.87506 | -57.93491 | 35970 ft | 443 kts | 204° |
| 2026-04-30 20:53 | -28.93506 | -57.95059 | 35971 ft | 443 kts | 204° |
| 2026-04-30 20:54 | -29.02535 | -57.97423 | 35973 ft | 443 kts | 204° |
| 2026-04-30 20:55 | -29.11502 | -57.99786 | 35962 ft | 443 kts | 203° |
| 2026-04-30 20:55 | -29.17535 | -58.01365 | 35962 ft | 442 kts | 203° |
| 2026-04-30 20:56 | -29.26508 | -58.03719 | 35975 ft | 442 kts | 203° |
| 2026-04-30 20:57 | -29.35478 | -58.06090 | 35970 ft | 442 kts | 203° |
| 2026-04-30 20:57 | -29.41475 | -58.07662 | 35975 ft | 442 kts | 203° |
| 2026-04-30 20:58 | -29.50584 | -58.09690 | 35977 ft | 446 kts | 200° |
| 2026-04-30 20:58 | -29.56714 | -58.10881 | 35975 ft | 446 kts | 200° |
| 2026-04-30 20:59 | -29.65887 | -58.12747 | 35972 ft | 446 kts | 200° |
| 2026-04-30 21:00 | -29.78031 | -58.15300 | 35974 ft | 445 kts | 200° |
| 2026-04-30 21:01 | -29.87195 | -58.17178 | 35966 ft | 447 kts | 199° |
| 2026-04-30 21:02 | -29.96394 | -58.18881 | 35977 ft | 447 kts | 199° |
| 2026-04-30 21:02 | -30.02530 | -58.20033 | 35980 ft | 446 kts | 199° |
| 2026-04-30 21:03 | -30.08655 | -58.21215 | 35975 ft | 446 kts | 199° |
| 2026-04-30 21:03 | -30.14798 | -58.22401 | 35977 ft | 446 kts | 199° |
| 2026-04-30 21:04 | -30.20883 | -58.23561 | 35969 ft | 446 kts | 199° |
| 2026-04-30 21:04 | -30.30068 | -58.25319 | 35970 ft | 446 kts | 199° |
| 2026-04-30 21:05 | -30.36184 | -58.26502 | 35969 ft | 445 kts | 199° |
| 2026-04-30 21:05 | -30.42296 | -58.27681 | 35974 ft | 445 kts | 199° |
| 2026-04-30 21:06 | -30.48415 | -58.28859 | 35974 ft | 445 kts | 199° |
| 2026-04-30 21:06 | -30.54526 | -58.30046 | 35975 ft | 445 kts | 199° |
| 2026-04-30 21:07 | -30.60626 | -58.31234 | 35971 ft | 445 kts | 199° |
| 2026-04-30 21:07 | -30.66690 | -58.32526 | 35976 ft | 443 kts | 200° |
| 2026-04-30 21:08 | -30.72777 | -58.33892 | 35975 ft | 443 kts | 200° |
| 2026-04-30 21:08 | -30.78804 | -58.35241 | 35969 ft | 443 kts | 200° |
| 2026-04-30 21:09 | -30.84863 | -58.36573 | 35972 ft | 444 kts | 200° |
| 2026-04-30 21:09 | -30.89948 | -58.37688 | 35970 ft | 443 kts | 200° |
| 2026-04-30 21:10 | -30.96027 | -58.38960 | 35972 ft | 444 kts | 199° |
| 2026-04-30 21:10 | -31.03117 | -58.40359 | 35974 ft | 445 kts | 199° |
| 2026-04-30 21:11 | -31.08188 | -58.41365 | 35971 ft | 444 kts | 199° |
| 2026-04-30 21:11 | -31.14281 | -58.42599 | 35970 ft | 444 kts | 199° |
| 2026-04-30 21:12 | -31.20362 | -58.43843 | 35975 ft | 444 kts | 199° |
| 2026-04-30 21:12 | -31.26486 | -58.45086 | 35973 ft | 444 kts | 199° |
| 2026-04-30 21:13 | -31.32559 | -58.46326 | 35971 ft | 444 kts | 199° |
| 2026-04-30 21:13 | -31.38637 | -58.47572 | 35968 ft | 444 kts | 199° |
| 2026-04-30 21:14 | -31.44718 | -58.48805 | 35970 ft | 444 kts | 199° |
| 2026-04-30 21:14 | -31.50792 | -58.50045 | 35973 ft | 444 kts | 199° |
| 2026-04-30 21:15 | -31.56889 | -58.51291 | 35974 ft | 444 kts | 199° |
| 2026-04-30 21:15 | -31.62950 | -58.52530 | 35975 ft | 444 kts | 199° |
| 2026-04-30 21:16 | -31.69032 | -58.53784 | 35977 ft | 443 kts | 199° |
| 2026-04-30 21:16 | -31.75101 | -58.55033 | 35977 ft | 443 kts | 199° |
| 2026-04-30 21:17 | -31.81184 | -58.56279 | 35966 ft | 444 kts | 199° |
| 2026-04-30 21:17 | -31.87264 | -58.57533 | 35967 ft | 443 kts | 199° |
| 2026-04-30 21:18 | -31.93345 | -58.58783 | 35966 ft | 443 kts | 199° |
| 2026-04-30 21:18 | -31.99423 | -58.60043 | 35970 ft | 443 kts | 199° |
| 2026-04-30 21:19 | -32.05498 | -58.61308 | 35969 ft | 443 kts | 199° |
| 2026-04-30 21:19 | -32.11537 | -58.62553 | 35973 ft | 444 kts | 199° |
| 2026-04-30 21:20 | -32.17619 | -58.63805 | 35972 ft | 443 kts | 199° |
| 2026-04-30 21:20 | -32.23694 | -58.65069 | 35915 ft | 444 kts | 199° |
| 2026-04-30 21:21 | -32.26731 | -58.65704 | 35672 ft | 442 kts | 199° |
| 2026-04-30 21:21 | -32.29764 | -58.66336 | 35431 ft | 440 kts | 199° |
| 2026-04-30 21:21 | -32.35918 | -58.66884 | 34946 ft | 453 kts | 184° |
| 2026-04-30 21:22 | -32.39067 | -58.66616 | 34707 ft | 452 kts | 184° |
| 2026-04-30 21:22 | -32.48431 | -58.65824 | 34006 ft | 448 kts | 184° |
| 2026-04-30 21:23 | -32.51534 | -58.65565 | 33754 ft | 446 kts | 184° |
| 2026-04-30 21:23 | -32.54625 | -58.65309 | 33487 ft | 445 kts | 184° |
| 2026-04-30 21:23 | -32.60776 | -58.64797 | 32965 ft | 442 kts | 184° |
| 2026-04-30 21:24 | -32.63826 | -58.64541 | 32619 ft | 438 kts | 184° |
| 2026-04-30 21:24 | -32.66860 | -58.64286 | 32131 ft | 436 kts | 183° |
| 2026-04-30 21:24 | -32.69878 | -58.64032 | 31656 ft | 435 kts | 183° |
| 2026-04-30 21:24 | -32.72856 | -58.63777 | 31198 ft | 433 kts | 183° |
| 2026-04-30 21:25 | -32.78845 | -58.63268 | 30280 ft | 430 kts | 182° |
| 2026-04-30 21:25 | -32.81833 | -58.63020 | 29794 ft | 429 kts | 182° |
| 2026-04-30 21:25 | -32.84749 | -58.62776 | 29357 ft | 426 kts | 182° |
| 2026-04-30 21:26 | -32.90448 | -58.62300 | 28532 ft | 420 kts | 182° |
| 2026-04-30 21:26 | -32.93354 | -58.62053 | 28111 ft | 417 kts | 182° |
| 2026-04-30 21:27 | -32.99114 | -58.61566 | 27293 ft | 413 kts | 182° |
| 2026-04-30 21:27 | -33.01953 | -58.61524 | 26888 ft | 403 kts | 192° |
| 2026-04-30 21:27 | -33.04725 | -58.61848 | 26478 ft | 399 kts | 193° |
| 2026-04-30 21:28 | -33.10188 | -58.62493 | 25650 ft | 395 kts | 192° |
| 2026-04-30 21:28 | -33.12922 | -58.62807 | 25232 ft | 394 kts | 192° |
| 2026-04-30 21:28 | -33.18369 | -58.63423 | 24349 ft | 392 kts | 192° |
| 2026-04-30 21:29 | -33.21085 | -58.63732 | 23908 ft | 392 kts | 193° |
| 2026-04-30 21:29 | -33.29186 | -58.64681 | 22527 ft | 386 kts | 193° |
| 2026-04-30 21:30 | -33.34489 | -58.65298 | 21636 ft | 380 kts | 193° |
| 2026-04-30 21:31 | -33.42299 | -58.66210 | 20331 ft | 372 kts | 192° |
| 2026-04-30 21:31 | -33.47427 | -58.66808 | 19471 ft | 368 kts | 192° |
| 2026-04-30 21:32 | -33.52525 | -58.67271 | 18381 ft | 377 kts | 183° |
| 2026-04-30 21:32 | -33.55133 | -58.67063 | 17889 ft | 370 kts | 182° |
| 2026-04-30 21:32 | -33.57677 | -58.66839 | 17206 ft | 362 kts | 182° |
| 2026-04-30 21:32 | -33.60136 | -58.66617 | 16807 ft | 347 kts | 182° |
| 2026-04-30 21:33 | -33.62502 | -58.66405 | 16403 ft | 335 kts | 182° |
| 2026-04-30 21:33 | -33.67017 | -58.66026 | 15626 ft | 326 kts | 182° |
| 2026-04-30 21:33 | -33.69280 | -58.65850 | 15226 ft | 327 kts | 182° |
| 2026-04-30 21:34 | -33.71556 | -58.65671 | 14835 ft | 328 kts | 181° |
| 2026-04-30 21:34 | -33.76119 | -58.65305 | 14057 ft | 330 kts | 181° |
| 2026-04-30 21:34 | -33.78412 | -58.65116 | 13641 ft | 331 kts | 180° |
| 2026-04-30 21:35 | -33.80710 | -58.64923 | 13217 ft | 331 kts | 180° |
| 2026-04-30 21:35 | -33.83004 | -58.64728 | 12811 ft | 330 kts | 180° |
| 2026-04-30 21:35 | -33.85296 | -58.64535 | 12419 ft | 330 kts | 180° |
| 2026-04-30 21:35 | -33.87589 | -58.64343 | 12015 ft | 330 kts | 179° |
| 2026-04-30 21:36 | -33.89854 | -58.64153 | 11618 ft | 330 kts | 179° |
| 2026-04-30 21:36 | -33.92155 | -58.63961 | 11211 ft | 330 kts | 179° |
| 2026-04-30 21:37 | -33.99046 | -58.63388 | 9996 ft | 332 kts | 178° |
| 2026-04-30 21:37 | -34.01332 | -58.63197 | 9777 ft | 325 kts | 178° |
| 2026-04-30 21:37 | -34.03564 | -58.63007 | 9535 ft | 319 kts | 178° |
| 2026-04-30 21:37 | -34.05768 | -58.62821 | 9208 ft | 317 kts | 178° |
| 2026-04-30 21:38 | -34.07968 | -58.62637 | 8867 ft | 315 kts | 178° |
| 2026-04-30 21:38 | -34.10150 | -58.62455 | 8532 ft | 314 kts | 178° |
| 2026-04-30 21:38 | -34.12316 | -58.62274 | 8183 ft | 310 kts | 177° |
| 2026-04-30 21:38 | -34.14458 | -58.62093 | 7587 ft | 307 kts | 177° |
| 2026-04-30 21:39 | -34.16555 | -58.61918 | 7017 ft | 304 kts | 177° |
| 2026-04-30 21:39 | -34.18676 | -58.61742 | 6500 ft | 299 kts | 176° |
| 2026-04-30 21:39 | -34.20700 | -58.61572 | 6074 ft | 291 kts | 176° |
| 2026-04-30 21:39 | -34.22691 | -58.61403 | 5706 ft | 282 kts | 176° |
| 2026-04-30 21:40 | -34.24616 | -58.61241 | 5354 ft | 273 kts | 176° |
| 2026-04-30 21:40 | -34.26487 | -58.61084 | 5014 ft | 268 kts | 177° |
| 2026-04-30 21:40 | -34.28346 | -58.60930 | 4670 ft | 267 kts | 177° |
| 2026-04-30 21:40 | -34.30195 | -58.60775 | 4351 ft | 267 kts | 176° |
| 2026-04-30 21:41 | -34.32053 | -58.60622 | 4009 ft | 268 kts | 176° |
| 2026-04-30 21:41 | -34.33915 | -58.60464 | 3721 ft | 267 kts | 176° |
| 2026-04-30 21:41 | -34.35732 | -58.60309 | 3640 ft | 256 kts | 176° |
| 2026-04-30 21:41 | -34.37471 | -58.60157 | 3537 ft | 246 kts | 176° |
| 2026-04-30 21:42 | -34.39144 | -58.60012 | 3438 ft | 236 kts | 176° |
| 2026-04-30 21:42 | -34.40756 | -58.59874 | 3342 ft | 227 kts | 176° |
| 2026-04-30 21:42 | -34.42301 | -58.59745 | 3231 ft | 219 kts | 176° |
| 2026-04-30 21:42 | -34.43805 | -58.59618 | 3135 ft | 215 kts | 176° |
| 2026-04-30 21:43 | -34.45246 | -58.59263 | 3053 ft | 207 kts | 156° |
| 2026-04-30 21:43 | -34.46396 | -58.58382 | 2982 ft | 184 kts | 134° |
| 2026-04-30 21:43 | -34.47154 | -58.57252 | 2854 ft | 163 kts | 120° |
| 2026-04-30 21:43 | -34.47776 | -58.56144 | 2660 ft | 155 kts | 119° |
| 2026-04-30 21:44 | -34.48375 | -58.55075 | 2463 ft | 152 kts | 119° |
| 2026-04-30 21:44 | -34.48964 | -58.54024 | 2267 ft | 150 kts | 119° |
| 2026-04-30 21:44 | -34.49546 | -58.52985 | 2071 ft | 148 kts | 118° |
| 2026-04-30 21:44 | -34.50116 | -58.51966 | 1878 ft | 148 kts | 118° |
| 2026-04-30 21:45 | -34.50692 | -58.50938 | 1686 ft | 147 kts | 118° |
| 2026-04-30 21:45 | -34.51264 | -58.49915 | 1480 ft | 146 kts | 119° |
| 2026-04-30 21:45 | -34.51831 | -58.48902 | 1294 ft | 145 kts | 120° |
| 2026-04-30 21:45 | -34.52393 | -58.47897 | 1106 ft | 143 kts | 120° |
| 2026-04-30 21:46 | -34.52950 | -58.46902 | 914 ft | 142 kts | 120° |
| 2026-04-30 21:46 | -34.53497 | -58.45923 | 729 ft | 139 kts | 122° |
| 2026-04-30 21:46 | -34.54033 | -58.44961 | 533 ft | 137 kts | 124° |
| 2026-04-30 21:46 | -34.54564 | -58.44020 | 353 ft | 135 kts | 123° |
| 2026-04-30 21:47 | -34.55082 | -58.43088 | 168 ft | 132 kts | 122° |
| 2026-04-30 21:47 | -34.55594 | -58.42172 | 35 ft | 125 kts | 123° |
| 2026-04-30 21:47 | -34.56007 | -58.41427 | 26 ft | 83 kts | 124° |
| 2026-04-30 21:47 | -34.56195 | -58.41086 | 28 ft | 27 kts | 122° |
| 2026-04-30 21:48 | -34.56234 | -58.40937 | 27 ft | 14 kts | 95° |
| 2026-04-30 21:48 | -34.56239 | -58.40849 | 27 ft | 10 kts | 94° |
| 2026-04-30 21:48 | -34.56211 | -58.40774 | 27 ft | 12 kts | 4° |
| 2026-04-30 21:48 | -34.56174 | -58.40844 | 27 ft | 9 kts | 288° |
| 2026-04-30 21:49 | -34.56151 | -58.40921 | 27 ft | 9 kts | 294° |
| 2026-04-30 21:49 | -34.56109 | -58.40994 | 27 ft | 12 kts | 308° |
| 2026-04-30 21:49 | -34.56054 | -58.41084 | 27 ft | 15 kts | 307° |
| 2026-04-30 21:49 | -34.55993 | -58.41182 | 27 ft | 11 kts | 307° |
| 2026-04-30 21:50 | -34.55949 | -58.41253 | 27 ft | 12 kts | 307° |
| 2026-04-30 21:50 | -34.55891 | -58.41292 | 27 ft | 11 kts | 17° |
| 2026-04-30 21:50 | -34.55832 | -58.41293 | 27 ft | 9 kts | 322° |
| 2026-04-30 21:50 | -34.55794 | -58.41359 | 27 ft | 10 kts | 304° |
| 2026-04-30 21:51 | -34.55762 | -58.41419 | 27 ft | 4 kts | 301° |
| 2026-04-30 21:51 | -34.55753 | -58.41437 | 27 ft | 2 kts | 301° |
| 2026-04-30 21:51 | -34.55737 | -58.41450 | 27 ft | 3 kts | 339° |
| 2026-04-30 21:51 | -34.55714 | -58.41445 | 27 ft | 2 kts | 15° |
| 2026-04-30 21:52 | -34.55706 | -58.41443 | 27 ft | 0 kts | 15° |